Time;durP1;ratioP1;P1;durP2;ratioP2;P2;SDS_P1;SDS_P2;PMS_P1;PMS_P2;Temp;Humidity;BMP_temperature;BMP_pressure;BME280_temperature;BME280_humidity;BME280_pressure;Samples;Min_cycle;Max_cycle;Signal;HPM_P1;HPM_P2
2024/03/05 00:01:58;;;;;;;42.13;23.13;;;;;;;;;;4918434;29;20035;-84
2024/03/05 00:04:45;;;;;;;40.80;23.70;;;;;;;;;;4916229;29;20031;-84
2024/03/05 00:07:30;;;;;;;38.95;23.98;;;;;;;;;;4924147;29;20024;-83
2024/03/05 00:10:15;;;;;;;39.53;23.27;;;;;;;;;;4916039;29;20114;-81
2024/03/05 00:13:01;;;;;;;39.53;23.65;;;;;;;;;;4915969;29;20031;-83
2024/03/05 00:15:50;;;;;;;40.08;21.92;;;;;;;;;;4916251;29;20031;-84
2024/03/05 00:18:35;;;;;;;41.75;23.70;;;;;;;;;;4929767;29;20047;-84
2024/03/05 00:21:20;;;;;;;37.47;23.15;;;;;;;;;;4915464;29;20024;-84
2024/03/05 00:24:06;;;;;;;40.72;24.98;;;;;;;;;;4916591;29;20035;-83
2024/03/05 00:26:51;;;;;;;35.70;23.77;;;;;;;;;;4915134;29;20041;-83
2024/03/05 00:29:40;;;;;;;39.95;23.10;;;;;;;;;;4928242;29;20032;-83
2024/03/05 00:32:25;;;;;;;40.85;23.55;;;;;;;;;;4912590;29;20498;-84
2024/03/05 00:35:11;;;;;;;35.58;21.52;;;;;;;;;;4915009;29;20063;-83
2024/03/05 00:37:56;;;;;;;40.17;23.85;;;;;;;;;;4915863;29;20079;-84
2024/03/05 00:40:41;;;;;;;48.60;23.27;;;;;;;;;;4902439;29;20038;-83
2024/03/05 00:43:26;;;;;;;40.03;23.58;;;;;;;;;;4928675;29;20514;-84
2024/03/05 00:46:12;;;;;;;43.10;23.95;;;;;;;;;;4916431;29;20034;-82
2024/03/05 00:48:58;;;;;;;39.15;23.05;;;;;;;;;;4917211;29;20075;-82
2024/03/05 00:51:43;;;;;;;38.53;22.77;;;;;;;;;;4914958;29;20031;-81
2024/03/05 00:54:28;;;;;;;38.65;22.30;;;;;;;;;;4914644;29;20098;-83
2024/03/05 00:57:14;;;;;;;40.20;22.90;;;;;;;;;;4914953;29;20023;-82
2024/03/05 00:59:59;;;;;;;34.92;20.58;;;;;;;;;;4902165;29;20023;-82
2024/03/05 01:02:44;;;;;;;42.35;21.35;;;;;;;;;;4914848;29;20518;-82
2024/03/05 01:05:30;;;;;;;39.85;23.98;;;;;;;;;;4911982;29;20023;-82
2024/03/05 01:08:15;;;;;;;41.72;23.52;;;;;;;;;;4914042;29;20587;-82
2024/03/05 01:11:01;;;;;;;39.83;22.30;;;;;;;;;;4914195;29;20431;-81
2024/03/05 01:13:46;;;;;;;35.22;20.98;;;;;;;;;;4914699;29;20119;-82
2024/03/05 01:16:31;;;;;;;36.42;21.80;;;;;;;;;;4927445;29;20027;-82
2024/03/05 01:19:17;;;;;;;39.45;21.85;;;;;;;;;;4911892;29;20028;-82
2024/03/05 01:22:02;;;;;;;35.25;20.73;;;;;;;;;;4915053;29;20048;-82
2024/03/05 01:24:50;;;;;;;39.42;22.23;;;;;;;;;;4914779;29;20032;-82
2024/03/05 01:27:36;;;;;;;39.33;21.00;;;;;;;;;;4914287;29;20534;-82
2024/03/05 01:30:22;;;;;;;34.28;20.10;;;;;;;;;;4925687;29;20522;-82
2024/03/05 01:33:09;;;;;;;39.00;22.50;;;;;;;;;;4911773;29;20019;-82
2024/03/05 01:35:56;;;;;;;38.85;22.15;;;;;;;;;;4914012;29;20055;-82
2024/03/05 01:38:42;;;;;;;41.90;23.27;;;;;;;;;;4912747;29;20083;-82
2024/03/05 01:41:27;;;;;;;40.67;22.40;;;;;;;;;;4910078;29;20601;-82
2024/03/05 01:44:15;;;;;;;39.88;24.13;;;;;;;;;;4927614;29;20814;-82
2024/03/05 01:47:01;;;;;;;37.00;23.48;;;;;;;;;;4912954;29;20024;-82
2024/03/05 01:49:46;;;;;;;37.97;20.15;;;;;;;;;;4912588;29;20114;-83
2024/03/05 01:52:31;;;;;;;38.80;21.42;;;;;;;;;;4920084;29;20614;-82
2024/03/05 01:55:17;;;;;;;34.58;20.02;;;;;;;;;;4913125;29;20054;-82
2024/03/05 01:58:03;;;;;;;33.90;19.73;;;;;;;;;;4913336;29;20243;-83
2024/03/05 02:00:49;;;;;;;34.38;20.35;;;;;;;;;;4914930;29;20458;-82
2024/03/05 02:03:35;;;;;;;37.83;21.08;;;;;;;;;;4914746;29;20681;-82
2024/03/05 02:06:21;;;;;;;36.50;22.20;;;;;;;;;;4912792;29;20023;-82
2024/03/05 02:09:11;;;;;;;34.33;19.27;;;;;;;;;;4914263;29;20032;-83
2024/03/05 02:11:56;;;;;;;34.33;19.77;;;;;;;;;;4914118;29;20062;-83
2024/03/05 02:14:41;;;;;;;39.20;22.65;;;;;;;;;;4927387;29;20043;-82
2024/03/05 02:17:27;;;;;;;37.22;19.67;;;;;;;;;;4913767;29;20031;-83
2024/03/05 02:20:15;;;;;;;36.28;21.05;;;;;;;;;;4925117;29;20079;-82
2024/03/05 02:23:02;;;;;;;32.33;20.52;;;;;;;;;;4926469;29;20035;-83
2024/03/05 02:25:49;;;;;;;36.22;20.83;;;;;;;;;;4922190;29;20027;-83
2024/03/05 02:28:35;;;;;;;41.08;21.23;;;;;;;;;;4914086;29;20083;-83
2024/03/05 02:31:20;;;;;;;36.78;21.52;;;;;;;;;;4911015;29;20106;-82
2024/03/05 02:34:09;;;;;;;34.60;19.42;;;;;;;;;;4913357;29;20043;-83
2024/03/05 02:36:54;;;;;;;38.67;21.10;;;;;;;;;;4912874;29;20515;-83
2024/03/05 02:39:39;;;;;;;37.05;21.85;;;;;;;;;;4907958;29;20622;-83
2024/03/05 02:42:25;;;;;;;37.63;21.75;;;;;;;;;;4926670;29;20398;-83
2024/03/05 02:45:15;;;;;;;36.60;22.17;;;;;;;;;;4907439;29;20126;-82
2024/03/05 02:48:01;;;;;;;37.55;20.48;;;;;;;;;;4911472;29;20406;-82
2024/03/05 02:50:47;;;;;;;41.53;23.08;;;;;;;;;;4916877;29;20027;-83
2024/03/05 02:53:34;;;;;;;42.20;22.02;;;;;;;;;;4917154;29;20245;-82
2024/03/05 02:56:20;;;;;;;34.58;22.77;;;;;;;;;;4914276;29;20385;-82
2024/03/05 02:59:05;;;;;;;40.90;22.75;;;;;;;;;;4917875;29;20150;-83
2024/03/05 03:01:50;;;;;;;40.13;21.67;;;;;;;;;;4918486;29;20031;-82
2024/03/05 03:04:36;;;;;;;35.97;21.63;;;;;;;;;;4913792;29;20108;-84
2024/03/05 03:07:22;;;;;;;44.30;22.27;;;;;;;;;;4932211;29;20114;-84
2024/03/05 03:10:07;;;;;;;39.83;22.05;;;;;;;;;;4917524;29;20098;-82
2024/03/05 03:12:53;;;;;;;43.92;24.15;;;;;;;;;;4920011;29;20031;-84
2024/03/05 03:15:38;;;;;;;37.97;21.25;;;;;;;;;;4919310;29;20033;-83
2024/03/05 03:18:23;;;;;;;38.28;21.95;;;;;;;;;;4916124;29;20111;-83
2024/03/05 03:21:09;;;;;;;43.55;23.33;;;;;;;;;;4913429;29;20256;-83
2024/03/05 03:23:54;;;;;;;44.45;23.17;;;;;;;;;;4918855;29;20107;-83
2024/03/05 03:26:40;;;;;;;38.08;21.08;;;;;;;;;;4919774;29;20024;-84
2024/03/05 03:29:26;;;;;;;38.55;21.35;;;;;;;;;;4932346;29;20639;-83
2024/03/05 03:32:11;;;;;;;37.95;22.63;;;;;;;;;;4919082;29;20040;-81
2024/03/05 03:34:57;;;;;;;40.92;22.05;;;;;;;;;;4919931;29;20063;-82
2024/03/05 03:37:42;;;;;;;37.70;21.77;;;;;;;;;;4907871;29;20070;-82
2024/03/05 03:40:33;;;;;;;36.72;21.75;;;;;;;;;;4920030;29;20091;-82
2024/03/05 03:43:18;;;;;;;36.67;20.90;;;;;;;;;;4917149;29;20091;-83
2024/03/05 03:46:04;;;;;;;40.08;21.65;;;;;;;;;;4915773;29;20028;-83
2024/03/05 03:48:50;;;;;;;39.80;23.15;;;;;;;;;;4931691;29;20270;-83
2024/03/05 03:51:36;;;;;;;46.10;21.70;;;;;;;;;;4918570;29;20177;-82
2024/03/05 03:54:24;;;;;;;43.90;21.92;;;;;;;;;;4933007;29;20445;-82
2024/03/05 03:57:10;;;;;;;40.47;21.38;;;;;;;;;;4914567;29;20059;-83
2024/03/05 03:59:56;;;;;;;38.78;21.65;;;;;;;;;;4932054;29;20040;-82
2024/03/05 04:02:41;;;;;;;36.58;20.23;;;;;;;;;;4930054;29;20115;-83
2024/03/05 04:05:26;;;;;;;39.30;22.38;;;;;;;;;;4916386;29;20373;-82
2024/03/05 04:08:11;;;;;;;38.38;19.77;;;;;;;;;;4915922;29;20032;-82
2024/03/05 04:10:57;;;;;;;41.40;22.27;;;;;;;;;;4927140;29;20032;-82
2024/03/05 04:13:43;;;;;;;36.30;19.58;;;;;;;;;;4916638;29;20024;-82
2024/03/05 04:16:29;;;;;;;36.40;20.23;;;;;;;;;;4902138;29;20050;-82
2024/03/05 04:19:14;;;;;;;36.03;18.85;;;;;;;;;;4940333;29;20151;-81
2024/03/05 04:21:58;;;;;;;33.92;20.70;;;;;;;;;;4953622;28;20078;-82
2024/03/05 04:24:52;;;;;;;36.22;20.77;;;;;;;;;;4955229;28;20027;-83
2024/03/05 04:27:41;;;;;;;35.72;21.10;;;;;;;;;;4955346;28;20019;-82
2024/03/05 04:30:27;;;;;;;36.97;19.95;;;;;;;;;;4947800;28;20023;-83
2024/03/05 04:33:15;;;;;;;39.80;21.30;;;;;;;;;;4938724;28;20557;-83
2024/03/05 04:36:01;;;;;;;36.27;21.20;;;;;;;;;;4915183;29;20190;-83
2024/03/05 04:38:46;;;;;;;34.13;18.75;;;;;;;;;;4917022;29;20126;-82
2024/03/05 04:41:32;;;;;;;37.22;20.60;;;;;;;;;;4914861;29;20050;-82
2024/03/05 04:44:17;;;;;;;40.55;21.48;;;;;;;;;;4912965;29;20031;-83
2024/03/05 04:47:03;;;;;;;37.97;21.15;;;;;;;;;;4928600;29;20031;-82
2024/03/05 04:49:49;;;;;;;34.47;19.30;;;;;;;;;;4915214;29;20517;-82
2024/03/05 04:52:34;;;;;;;37.90;20.73;;;;;;;;;;4911890;29;20087;-82
2024/03/05 04:55:21;;;;;;;36.30;20.17;;;;;;;;;;4915188;29;20479;-82
2024/03/05 04:58:07;;;;;;;37.88;20.27;;;;;;;;;;4925635;29;20039;-83
2024/03/05 05:00:52;;;;;;;35.97;21.85;;;;;;;;;;4914966;29;20058;-83
2024/03/05 05:03:38;;;;;;;39.60;21.25;;;;;;;;;;4915659;29;20044;-83
2024/03/05 05:06:25;;;;;;;40.30;20.88;;;;;;;;;;4910731;29;20059;-83
2024/03/05 05:09:10;;;;;;;37.28;22.02;;;;;;;;;;4902511;29;20118;-82
2024/03/05 05:11:57;;;;;;;35.88;20.58;;;;;;;;;;4924123;29;20046;-82
2024/03/05 05:14:43;;;;;;;38.55;21.20;;;;;;;;;;4913886;29;20024;-82
2024/03/05 05:17:28;;;;;;;37.40;21.65;;;;;;;;;;4914545;29;20023;-82
2024/03/05 05:20:15;;;;;;;38.10;20.38;;;;;;;;;;4915287;29;20020;-82
2024/03/05 05:23:00;;;;;;;40.25;21.13;;;;;;;;;;4926581;29;20042;-83
2024/03/05 05:25:45;;;;;;;34.90;21.55;;;;;;;;;;4915437;29;20104;-83
2024/03/05 05:28:31;;;;;;;36.90;20.60;;;;;;;;;;4915165;29;20016;-82
2024/03/05 05:31:24;;;;;;;36.25;19.85;;;;;;;;;;4914336;29;20055;-82
2024/03/05 05:34:09;;;;;;;43.08;22.13;;;;;;;;;;4913650;29;20055;-82
2024/03/05 05:36:54;;;;;;;34.08;19.33;;;;;;;;;;4914089;29;20505;-83
2024/03/05 05:39:40;;;;;;;37.47;21.70;;;;;;;;;;4914808;29;20027;-84
2024/03/05 05:42:25;;;;;;;38.10;21.23;;;;;;;;;;4913622;29;20027;-83
2024/03/05 05:45:11;;;;;;;39.22;20.58;;;;;;;;;;4914541;29;20031;-80
2024/03/05 05:47:58;;;;;;;44.45;22.42;;;;;;;;;;4913881;29;20037;-82
2024/03/05 05:50:43;;;;;;;36.67;21.80;;;;;;;;;;4912369;29;20030;-79
2024/03/05 05:53:28;;;;;;;44.38;22.80;;;;;;;;;;4927096;29;20362;-80
2024/03/05 05:56:13;;;;;;;38.53;21.85;;;;;;;;;;4914290;29;20086;-82
2024/03/05 05:58:58;;;;;;;36.78;21.40;;;;;;;;;;4913044;29;20039;-82
2024/03/05 06:01:44;;;;;;;42.78;22.23;;;;;;;;;;4914503;29;20391;-82
2024/03/05 06:04:31;;;;;;;37.83;21.00;;;;;;;;;;4914652;29;20443;-83
2024/03/05 06:07:18;;;;;;;37.88;21.63;;;;;;;;;;4906324;29;20016;-82
2024/03/05 06:10:04;;;;;;;37.90;21.20;;;;;;;;;;4914592;29;20034;-82
2024/03/05 06:12:49;;;;;;;33.33;20.50;;;;;;;;;;4933537;29;20040;-83
2024/03/05 06:15:38;;;;;;;36.15;20.35;;;;;;;;;;4913424;29;20451;-83
2024/03/05 06:18:24;;;;;;;39.10;21.52;;;;;;;;;;4918053;29;20055;-83
2024/03/05 06:21:09;;;;;;;39.60;21.75;;;;;;;;;;4915095;29;20438;-84
2024/03/05 06:23:54;;;;;;;42.63;20.80;;;;;;;;;;4917494;29;20043;-83
2024/03/05 06:26:40;;;;;;;38.85;22.45;;;;;;;;;;4931376;29;20033;-84
2024/03/05 06:29:27;;;;;;;37.42;21.25;;;;;;;;;;4911689;29;20111;-84
2024/03/05 06:32:13;;;;;;;38.95;21.88;;;;;;;;;;4918589;29;20218;-86
2024/03/05 06:34:58;;;;;;;38.13;21.55;;;;;;;;;;4915813;29;20430;-87
2024/03/05 06:37:44;;;;;;;37.75;22.30;;;;;;;;;;4919207;29;20427;-87
2024/03/05 06:40:29;;;;;;;34.70;20.67;;;;;;;;;;4919817;29;20390;-86
2024/03/05 06:43:25;;;;;;;40.72;22.35;;;;;;;;;;4907851;29;20092;-86
2024/03/05 06:46:13;;;;;;;38.65;21.88;;;;;;;;;;4913005;29;20031;-85
2024/03/05 06:49:08;;;;;;;36.58;20.27;;;;;;;;;;4895991;29;20033;-88
2024/03/05 06:51:55;;;;;;;38.97;20.92;;;;;;;;;;4917568;29;20534;-85
2024/03/05 06:57:46;;;;;;;37.83;22.02;;;;;;;;;;4932111;29;20027;-87
2024/03/05 07:00:32;;;;;;;43.83;21.95;;;;;;;;;;4916702;29;20067;-89
2024/03/05 07:03:17;;;;;;;38.22;20.92;;;;;;;;;;4909933;29;20116;-87
2024/03/05 07:06:06;;;;;;;41.72;22.70;;;;;;;;;;4917189;29;20110;-88
2024/03/05 07:08:54;;;;;;;38.55;21.92;;;;;;;;;;4919447;29;20076;-88
2024/03/05 07:11:40;;;;;;;40.50;21.92;;;;;;;;;;4918726;28;20113;-86
2024/03/05 07:14:26;;;;;;;43.15;23.13;;;;;;;;;;4926733;29;20026;-84
2024/03/05 07:17:11;;;;;;;40.55;22.10;;;;;;;;;;4931633;29;20031;-84
2024/03/05 07:19:56;;;;;;;35.83;20.90;;;;;;;;;;4899780;29;20024;-85
2024/03/05 07:22:45;;;;;;;42.95;23.10;;;;;;;;;;4904092;29;20023;-84
2024/03/05 07:25:34;;;;;;;41.47;21.80;;;;;;;;;;4919152;29;20055;-84
2024/03/05 07:28:20;;;;;;;43.65;24.13;;;;;;;;;;4917469;29;20028;-85
2024/03/05 07:31:06;;;;;;;43.35;23.10;;;;;;;;;;4934366;29;20034;-84
2024/03/05 07:33:52;;;;;;;38.90;22.45;;;;;;;;;;4918188;29;20059;-84
2024/03/05 07:36:39;;;;;;;41.72;21.23;;;;;;;;;;4921021;29;20020;-85
2024/03/05 07:39:25;;;;;;;42.13;23.20;;;;;;;;;;4923757;29;20518;-87
2024/03/05 07:42:10;;;;;;;40.92;23.95;;;;;;;;;;4927288;29;20542;-87
2024/03/05 07:44:56;;;;;;;44.80;24.50;;;;;;;;;;4934292;29;20066;-86
2024/03/05 07:47:42;;;;;;;44.53;23.13;;;;;;;;;;4930764;29;20024;-86
2024/03/05 07:50:28;;;;;;;47.97;25.48;;;;;;;;;;4928403;29;20415;-86
2024/03/05 07:53:13;;;;;;;43.80;24.08;;;;;;;;;;4930979;29;20046;-85
2024/03/05 07:55:58;;;;;;;47.90;24.88;;;;;;;;;;4935033;29;20134;-85
2024/03/05 07:58:44;;;;;;;44.22;23.77;;;;;;;;;;4939621;29;20030;-85
2024/03/05 08:01:29;;;;;;;48.20;25.75;;;;;;;;;;4935308;29;20053;-85
2024/03/05 08:04:16;;;;;;;46.60;25.60;;;;;;;;;;4917481;29;20114;-85
2024/03/05 08:07:02;;;;;;;41.30;23.33;;;;;;;;;;4925961;29;20039;-86
2024/03/05 08:09:47;;;;;;;46.72;24.05;;;;;;;;;;4922668;29;20031;-85
2024/03/05 08:12:37;;;;;;;48.63;25.98;;;;;;;;;;4917103;29;20031;-83
2024/03/05 08:15:51;;;;;;;46.95;24.25;;;;;;;;;;4932655;29;20036;-90
2024/03/05 08:18:37;;;;;;;47.72;25.50;;;;;;;;;;4905409;29;20027;-87
2024/03/05 08:21:22;;;;;;;49.67;24.90;;;;;;;;;;4930968;29;20546;-87
2024/03/05 08:24:09;;;;;;;42.55;23.45;;;;;;;;;;4918989;29;20055;-88
2024/03/05 08:26:54;;;;;;;48.92;24.73;;;;;;;;;;4930391;29;20067;-88
2024/03/05 08:33:09;;;;;;;45.20;22.98;;;;;;;;;;4922955;29;20090;-89
2024/03/05 08:35:54;;;;;;;44.75;25.00;;;;;;;;;;4919891;29;20043;-90
2024/03/05 08:38:40;;;;;;;49.58;25.80;;;;;;;;;;4912109;29;20032;-89
2024/03/05 08:41:26;;;;;;;41.83;23.92;;;;;;;;;;4934042;29;20037;-89
2024/03/05 08:44:14;;;;;;;43.85;23.48;;;;;;;;;;4932836;29;20026;-90
2024/03/05 08:47:00;;;;;;;42.30;24.20;;;;;;;;;;4928162;29;20372;-90
2024/03/05 08:49:49;;;;;;;40.92;23.58;;;;;;;;;;4941784;29;20509;-90
2024/03/05 08:52:34;;;;;;;42.35;23.88;;;;;;;;;;4917802;29;20034;-88
2024/03/05 08:55:19;;;;;;;38.80;22.90;;;;;;;;;;4917627;29;20024;-86
2024/03/05 08:58:05;;;;;;;38.42;21.65;;;;;;;;;;4929882;29;20142;-89
2024/03/05 09:00:50;;;;;;;41.50;22.27;;;;;;;;;;4904085;29;20120;-88
2024/03/05 09:03:36;;;;;;;33.88;20.30;;;;;;;;;;4930874;29;20036;-86
2024/03/05 09:06:22;;;;;;;36.78;21.70;;;;;;;;;;4928257;29;20031;-86
2024/03/05 09:09:07;;;;;;;37.30;20.50;;;;;;;;;;4926027;29;20062;-85
2024/03/05 09:11:52;;;;;;;34.53;19.85;;;;;;;;;;4939162;28;20070;-85
2024/03/05 09:14:38;;;;;;;31.48;18.25;;;;;;;;;;4903518;29;20054;-85
2024/03/05 09:17:23;;;;;;;27.83;16.00;;;;;;;;;;4922324;29;20035;-86
2024/03/05 09:20:15;;;;;;;27.17;14.23;;;;;;;;;;4918532;29;20019;-83
2024/03/05 09:23:01;;;;;;;23.85;13.02;;;;;;;;;;4930065;29;20530;-84
2024/03/05 09:25:47;;;;;;;19.58;11.68;;;;;;;;;;4926240;29;20599;-85
2024/03/05 09:28:36;;;;;;;18.77;10.35;;;;;;;;;;4935042;29;20101;-87
2024/03/05 09:31:22;;;;;;;17.23;10.05;;;;;;;;;;4922273;29;20028;-85
2024/03/05 09:34:07;;;;;;;16.02;8.15;;;;;;;;;;4918017;29;20069;-87
2024/03/05 09:36:54;;;;;;;15.35;8.35;;;;;;;;;;4921158;29;20031;-87
2024/03/05 09:39:39;;;;;;;14.52;7.75;;;;;;;;;;4920937;29;20558;-85
2024/03/05 09:42:26;;;;;;;15.90;8.32;;;;;;;;;;4922055;29;20487;-87
2024/03/05 09:45:14;;;;;;;17.00;6.63;;;;;;;;;;4920817;29;20102;-87
2024/03/05 09:47:59;;;;;;;15.05;8.00;;;;;;;;;;4924024;29;20028;-85
2024/03/05 09:50:47;;;;;;;11.35;6.50;;;;;;;;;;4912752;29;20058;-85
2024/03/05 09:53:32;;;;;;;12.60;7.40;;;;;;;;;;4915891;29;20055;-86
2024/03/05 09:56:19;;;;;;;12.95;6.85;;;;;;;;;;4918131;29;20035;-85
2024/03/05 09:59:05;;;;;;;12.10;6.88;;;;;;;;;;4938006;29;20086;-86
2024/03/05 10:01:50;;;;;;;13.10;6.82;;;;;;;;;;4937689;29;20028;-85
2024/03/05 10:04:40;;;;;;;9.93;5.32;;;;;;;;;;4940070;28;20016;-89
2024/03/05 10:07:25;;;;;;;;;;;;;;;;;;4940873;28;20016;-87
2024/03/05 10:10:11;;;;;;;11.57;6.22;;;;;;;;;;4922748;29;19939;-87
2024/03/05 10:12:57;;;;;;;10.90;6.20;;;;;;;;;;4915575;29;20043;-84
2024/03/05 10:15:43;;;;;;;12.13;6.50;;;;;;;;;;4921105;29;20040;-87
2024/03/05 10:18:31;;;;;;;8.75;5.10;;;;;;;;;;4925859;29;20024;-86
2024/03/05 10:21:22;;;;;;;10.37;6.13;;;;;;;;;;4924349;29;20051;-86
2024/03/05 10:24:09;;;;;;;11.95;5.18;;;;;;;;;;4911309;29;20071;-87
2024/03/05 10:26:55;;;;;;;8.38;5.35;;;;;;;;;;4936722;29;20031;-86
2024/03/05 10:29:40;;;;;;;10.13;5.05;;;;;;;;;;4920855;29;20031;-86
2024/03/05 10:32:27;;;;;;;10.25;5.28;;;;;;;;;;4928998;29;20451;-86
2024/03/05 10:35:12;;;;;;;9.95;5.25;;;;;;;;;;4918424;29;20039;-87
2024/03/05 10:37:57;;;;;;;9.38;5.45;;;;;;;;;;4934668;29;20035;-84
2024/03/05 10:40:43;;;;;;;9.52;5.18;;;;;;;;;;4930883;29;20090;-90
2024/03/05 10:43:29;;;;;;;9.25;4.45;;;;;;;;;;4905297;29;20035;-90
2024/03/05 10:46:17;;;;;;;8.57;4.22;;;;;;;;;;4908870;29;20123;-91
2024/03/05 10:49:05;;;;;;;6.90;4.25;;;;;;;;;;4917052;29;20038;-91
2024/03/05 10:51:54;;;;;;;7.40;4.47;;;;;;;;;;4934180;29;20028;-90
2024/03/05 10:54:42;;;;;;;7.10;4.38;;;;;;;;;;4896843;29;20032;-89
2024/03/05 10:57:28;;;;;;;5.15;3.55;;;;;;;;;;4931540;29;20034;-90
2024/03/05 11:00:14;;;;;;;6.25;3.53;;;;;;;;;;4912359;29;20474;-89
2024/03/05 11:03:08;;;;;;;8.00;4.47;;;;;;;;;;4915449;29;20034;-89
2024/03/05 11:05:56;;;;;;;6.32;3.78;;;;;;;;;;4906779;29;20032;-89
2024/03/05 11:08:45;;;;;;;6.13;3.83;;;;;;;;;;4916617;29;20027;-90
2024/03/05 11:11:33;;;;;;;5.80;3.42;;;;;;;;;;4919807;28;20015;-91
2024/03/05 11:14:21;;;;;;;5.97;3.60;;;;;;;;;;4914881;29;20387;-91
2024/03/05 11:17:09;;;;;;;5.90;3.38;;;;;;;;;;4920742;29;20024;-89
2024/03/05 11:19:56;;;;;;;8.35;3.85;;;;;;;;;;4908784;29;20039;-90
2024/03/05 11:22:44;;;;;;;6.25;2.90;;;;;;;;;;4932896;29;20550;-89
2024/03/05 11:25:32;;;;;;;4.30;2.90;;;;;;;;;;4920076;29;20340;-89
2024/03/05 11:28:19;;;;;;;3.90;2.33;;;;;;;;;;4919332;29;20028;-89
2024/03/05 11:31:09;;;;;;;5.10;2.40;;;;;;;;;;4919685;29;20479;-89
2024/03/05 11:34:03;;;;;;;5.30;3.45;;;;;;;;;;4939856;28;20043;-82
2024/03/05 11:37:05;;;;;;;4.82;2.97;;;;;;;;;;4921778;29;20269;-86
2024/03/05 11:39:51;;;;;;;10.20;4.85;;;;;;;;;;4928154;29;20031;-85
2024/03/05 11:42:37;;;;;;;39.55;26.98;;;;;;;;;;4917493;29;20031;-85
2024/03/05 11:45:44;;;;;;;15.07;8.40;;;;;;;;;;4930291;29;20032;-88
2024/03/05 11:48:30;;;;;;;61.53;40.92;;;;;;;;;;4902058;29;20103;-90
2024/03/05 11:51:16;;;;;;;18.42;12.35;;;;;;;;;;4916584;29;20082;-89
2024/03/05 11:54:01;;;;;;;10.57;6.28;;;;;;;;;;4903030;29;20507;-87
2024/03/05 11:56:55;;;;;;;10.85;6.20;;;;;;;;;;4930600;29;20053;-88
2024/03/05 11:59:40;;;;;;;6.95;5.05;;;;;;;;;;4918431;29;20617;-88
2024/03/05 12:02:26;;;;;;;4.55;3.00;;;;;;;;;;4917667;29;20040;-87
2024/03/05 12:05:15;;;;;;;5.03;2.60;;;;;;;;;;4919255;29;20098;-86
2024/03/05 12:08:07;;;;;;;4.97;2.78;;;;;;;;;;4917056;29;20079;-88
2024/03/05 12:11:00;;;;;;;3.85;2.78;;;;;;;;;;4922671;29;20095;-86
2024/03/05 12:13:47;;;;;;;3.53;2.30;;;;;;;;;;4909844;29;20442;-87
2024/03/05 12:16:33;;;;;;;3.42;2.60;;;;;;;;;;4917349;29;20470;-87
2024/03/05 12:19:18;;;;;;;4.55;1.95;;;;;;;;;;4917899;29;20039;-86
2024/03/05 12:22:06;;;;;;;3.80;2.00;;;;;;;;;;4921429;29;20039;-87
2024/03/05 12:24:52;;;;;;;4.85;2.65;;;;;;;;;;4933447;29;20059;-88
2024/03/05 12:27:38;;;;;;;2.72;1.85;;;;;;;;;;4918170;29;20039;-87
2024/03/05 12:30:25;;;;;;;2.78;2.05;;;;;;;;;;4925203;29;20122;-86
2024/03/05 12:33:10;;;;;;;3.08;2.25;;;;;;;;;;4920315;29;20031;-86
2024/03/05 12:35:55;;;;;;;3.47;2.05;;;;;;;;;;4931255;29;20031;-87
2024/03/05 12:38:41;;;;;;;4.28;2.50;;;;;;;;;;4938605;28;20206;-88
2024/03/05 12:41:26;;;;;;;3.08;2.13;;;;;;;;;;4954354;28;20019;-86
2024/03/05 12:44:21;;;;;;;4.32;1.92;;;;;;;;;;4943226;28;20140;-89
2024/03/05 12:47:09;;;;;;;2.97;1.85;;;;;;;;;;4941543;28;20031;-86
2024/03/05 12:49:55;;;;;;;3.65;2.33;;;;;;;;;;4936403;28;20039;-87
2024/03/05 12:52:40;;;;;;;3.22;2.35;;;;;;;;;;4914676;29;20024;-87
2024/03/05 12:55:27;;;;;;;5.82;2.65;;;;;;;;;;4918200;29;20043;-87
2024/03/05 12:58:13;;;;;;;5.80;3.22;;;;;;;;;;4918316;29;20034;-88
2024/03/05 13:00:59;;;;;;;2.70;1.83;;;;;;;;;;4915413;29;20047;-88
2024/03/05 13:03:48;;;;;;;5.10;2.20;;;;;;;;;;4906985;29;20099;-87
2024/03/05 13:06:33;;;;;;;10.85;5.75;;;;;;;;;;4919390;29;20027;-88
2024/03/05 13:09:20;;;;;;;6.43;3.00;;;;;;;;;;4918927;29;20498;-88
2024/03/05 13:12:05;;;;;;;5.22;2.30;;;;;;;;;;4915949;29;20031;-89
2024/03/05 13:14:51;;;;;;;3.90;2.22;;;;;;;;;;4916952;29;20031;-89
2024/03/05 13:17:36;;;;;;;2.08;1.50;;;;;;;;;;4911208;29;20490;-87
2024/03/05 13:20:22;;;;;;;2.47;1.70;;;;;;;;;;4935516;29;20027;-86
2024/03/05 13:23:07;;;;;;;2.63;1.58;;;;;;;;;;4916747;29;20402;-89
2024/03/05 13:25:53;;;;;;;1.50;0.98;;;;;;;;;;4923858;29;20155;-88
2024/03/05 13:28:38;;;;;;;1.27;1.08;;;;;;;;;;4931794;29;20032;-88
2024/03/05 13:31:24;;;;;;;1.30;1.10;;;;;;;;;;4918831;29;20030;-89
2024/03/05 13:34:10;;;;;;;1.95;1.35;;;;;;;;;;4919245;29;20111;-85
2024/03/05 13:36:56;;;;;;;3.17;1.27;;;;;;;;;;4917807;29;20149;-86
2024/03/05 13:39:45;;;;;;;1.00;0.90;;;;;;;;;;4903934;29;20545;-88
2024/03/05 13:42:34;;;;;;;;;;;;;;;;;;4911065;29;20031;-87
2024/03/05 13:45:20;;;;;;;1.27;0.98;;;;;;;;;;4913336;29;19915;-88
2024/03/05 13:48:08;;;;;;;1.83;1.13;;;;;;;;;;4909585;29;20092;-84
2024/03/05 13:50:54;;;;;;;2.42;1.30;;;;;;;;;;4916973;29;20106;-88
2024/03/05 13:53:45;;;;;;;1.17;1.08;;;;;;;;;;4916005;29;20031;-87
2024/03/05 13:56:31;;;;;;;1.40;0.98;;;;;;;;;;4915549;29;20031;-89
2024/03/05 13:59:16;;;;;;;1.38;1.15;;;;;;;;;;4921048;29;20066;-87
2024/03/05 14:02:02;;;;;;;2.60;1.73;;;;;;;;;;4916189;29;20514;-89
2024/03/05 14:04:49;;;;;;;0.88;0.88;;;;;;;;;;4919087;29;20367;-86
2024/03/05 14:07:34;;;;;;;1.08;0.95;;;;;;;;;;4927289;29;20027;-86
2024/03/05 14:10:19;;;;;;;1.13;1.02;;;;;;;;;;4914048;29;20028;-85
2024/03/05 14:13:13;;;;;;;1.17;1.00;;;;;;;;;;4930047;29;20071;-89
2024/03/05 14:15:58;;;;;;;3.70;1.20;;;;;;;;;;4912111;29;20034;-84
2024/03/05 14:18:44;;;;;;;2.10;1.20;;;;;;;;;;4929309;29;20035;-85
2024/03/05 14:21:30;;;;;;;1.77;1.40;;;;;;;;;;4928878;29;20039;-89
2024/03/05 14:24:16;;;;;;;2.45;1.50;;;;;;;;;;4915772;29;20112;-89
2024/03/05 14:27:01;;;;;;;1.45;1.33;;;;;;;;;;4921116;29;20034;-87
2024/03/05 14:29:46;;;;;;;4.25;1.55;;;;;;;;;;4915636;29;20099;-86
2024/03/05 14:32:32;;;;;;;1.42;1.10;;;;;;;;;;4912120;29;20038;-85
2024/03/05 14:35:19;;;;;;;2.30;1.27;;;;;;;;;;4916219;29;20055;-86
2024/03/05 14:38:12;;;;;;;1.50;1.10;;;;;;;;;;4918819;29;20507;-86
2024/03/05 14:40:58;;;;;;;1.88;1.30;;;;;;;;;;4928108;29;20024;-85
2024/03/05 14:43:44;;;;;;;2.90;2.00;;;;;;;;;;4913957;29;20040;-84
2024/03/05 14:46:29;;;;;;;1.95;1.40;;;;;;;;;;4917333;29;20328;-86
2024/03/05 14:49:20;;;;;;;1.48;1.23;;;;;;;;;;4928865;29;20090;-89
2024/03/05 14:52:05;;;;;;;3.13;1.15;;;;;;;;;;4932870;29;20417;-84
2024/03/05 14:54:50;;;;;;;1.23;1.02;;;;;;;;;;4933206;29;20043;-87
2024/03/05 14:57:36;;;;;;;1.25;0.90;;;;;;;;;;4922343;29;20034;-86
2024/03/05 15:00:24;;;;;;;2.80;1.60;;;;;;;;;;4920237;29;20047;-85
2024/03/05 15:03:10;;;;;;;1.73;1.08;;;;;;;;;;4928346;29;20087;-86
2024/03/05 15:05:56;;;;;;;1.55;1.13;;;;;;;;;;4919142;29;20045;-87
2024/03/05 15:08:41;;;;;;;1.42;1.17;;;;;;;;;;4916340;29;20035;-85
2024/03/05 15:11:27;;;;;;;1.35;1.10;;;;;;;;;;4919228;29;20058;-86
2024/03/05 15:14:12;;;;;;;1.73;1.20;;;;;;;;;;4920736;29;20486;-86
2024/03/05 15:16:58;;;;;;;1.27;1.15;;;;;;;;;;4929236;29;20064;-85
2024/03/05 15:19:45;;;;;;;2.92;1.10;;;;;;;;;;4931313;29;20410;-90
2024/03/05 15:22:30;;;;;;;2.22;1.40;;;;;;;;;;4933561;29;20411;-87
2024/03/05 15:25:19;;;;;;;1.25;1.10;;;;;;;;;;4929096;29;20051;-88
2024/03/05 15:28:07;;;;;;;0.85;0.82;;;;;;;;;;4932538;29;20027;-89
2024/03/05 15:30:52;;;;;;;1.92;1.10;;;;;;;;;;4929061;29;20095;-89
2024/03/05 15:33:40;;;;;;;3.70;1.92;;;;;;;;;;4905509;29;20254;-89
2024/03/05 15:36:26;;;;;;;2.78;1.60;;;;;;;;;;4921808;29;20039;-89
2024/03/05 15:39:11;;;;;;;1.45;1.33;;;;;;;;;;4921031;29;20028;-88
2024/03/05 15:41:59;;;;;;;1.95;1.08;;;;;;;;;;4918976;29;20075;-87
2024/03/05 15:44:44;;;;;;;2.40;1.45;;;;;;;;;;4922375;29;20468;-84
2024/03/05 15:47:29;;;;;;;2.42;1.30;;;;;;;;;;4919015;29;20031;-86
2024/03/05 15:50:18;;;;;;;4.15;1.90;;;;;;;;;;4921058;29;20039;-90
2024/03/05 15:53:04;;;;;;;2.53;1.40;;;;;;;;;;4916972;29;20027;-90
2024/03/05 15:56:00;;;;;;;1.00;0.90;;;;;;;;;;4920782;29;20047;-90
2024/03/05 16:01:53;;;;;;;1.65;1.25;;;;;;;;;;4936590;29;20569;-87
2024/03/05 16:04:38;;;;;;;1.42;1.10;;;;;;;;;;4926380;29;20098;-88
2024/03/05 16:07:23;;;;;;;2.22;1.48;;;;;;;;;;4917658;29;20479;-89
2024/03/05 16:10:14;;;;;;;1.63;1.10;;;;;;;;;;4931299;29;20024;-89
2024/03/05 16:13:02;;;;;;;1.52;1.10;;;;;;;;;;4918028;29;20023;-89
2024/03/05 16:15:47;;;;;;;1.35;0.95;;;;;;;;;;4920817;29;20024;-90
2024/03/05 16:18:32;;;;;;;1.17;1.02;;;;;;;;;;4934925;29;20027;-87
2024/03/05 16:21:18;;;;;;;2.28;1.05;;;;;;;;;;4917178;29;20038;-86
2024/03/05 16:24:04;;;;;;;1.20;1.10;;;;;;;;;;4920176;29;20126;-89
2024/03/05 16:26:50;;;;;;;2.28;1.20;;;;;;;;;;4918309;29;20101;-88
2024/03/05 16:29:36;;;;;;;1.85;1.38;;;;;;;;;;4923865;29;20042;-88
2024/03/05 16:32:21;;;;;;;1.92;1.35;;;;;;;;;;4917478;29;20023;-87